createdAt,value
2019-01-24T00:00:15.890Z,5.12
2019-01-24T00:00:47.092Z,5.11
2019-01-24T00:01:18.288Z,5.06
2019-01-24T00:01:49.489Z,5.05
2019-01-24T00:02:20.696Z,5.07
2019-01-24T00:02:51.883Z,5.05
2019-01-24T00:03:23.070Z,5.03
2019-01-24T00:03:54.283Z,5.04
2019-01-24T00:04:25.469Z,5.15
2019-01-24T00:04:56.643Z,5.30
2019-01-24T00:05:27.828Z,5.38
2019-01-24T00:05:59.041Z,5.43
2019-01-24T00:06:30.213Z,5.41
2019-01-24T00:07:01.379Z,5.45
2019-01-24T00:07:32.572Z,5.46
2019-01-24T00:08:03.773Z,5.51
2019-01-24T00:08:35.004Z,5.61
2019-01-24T00:09:06.245Z,5.70
2019-01-24T00:09:37.419Z,5.70
2019-01-24T00:10:08.622Z,5.68
2019-01-24T00:10:39.832Z,5.62
2019-01-24T00:11:11.020Z,5.64
2019-01-24T00:11:42.203Z,5.64
2019-01-24T00:12:13.397Z,5.62
2019-01-24T00:12:44.578Z,5.61
2019-01-24T00:13:15.821Z,5.58
2019-01-24T00:13:46.996Z,5.56
2019-01-24T00:14:18.209Z,5.55
2019-01-24T00:14:49.394Z,5.53
2019-01-24T00:15:20.564Z,5.51
2019-01-24T00:15:51.743Z,5.45
2019-01-24T00:16:22.967Z,5.43
2019-01-24T00:16:54.121Z,5.40
2019-01-24T00:17:25.306Z,5.37
2019-01-24T00:17:56.490Z,5.34
2019-01-24T00:18:27.792Z,5.29
2019-01-24T00:18:58.999Z,5.27
2019-01-24T00:19:30.182Z,5.28
2019-01-24T00:20:01.375Z,5.31
2019-01-24T00:20:32.592Z,5.33
2019-01-24T00:21:03.811Z,5.30
2019-01-24T00:21:35.022Z,5.28
2019-01-24T00:22:06.214Z,5.29
2019-01-24T00:22:37.438Z,5.27
2019-01-24T00:23:08.628Z,5.26
2019-01-24T00:23:39.873Z,5.22
2019-01-24T00:24:11.058Z,5.15
2019-01-24T00:24:42.284Z,5.11
2019-01-24T00:25:13.452Z,5.16
2019-01-24T00:25:45.383Z,5.22
2019-01-24T00:26:16.584Z,5.26
2019-01-24T00:26:47.813Z,5.28
2019-01-24T00:27:18.992Z,5.29
2019-01-24T00:27:50.220Z,5.31
2019-01-24T00:28:21.389Z,5.39
2019-01-24T00:28:52.566Z,5.47
2019-01-24T00:29:23.742Z,5.58
2019-01-24T00:29:54.917Z,5.64
2019-01-24T00:30:26.105Z,5.62
2019-01-24T00:30:57.290Z,5.62
2019-01-24T00:31:28.470Z,5.63
2019-01-24T00:31:59.689Z,5.59
2019-01-24T00:32:30.927Z,5.61
2019-01-24T00:33:02.154Z,5.59
2019-01-24T00:33:33.405Z,5.56
2019-01-24T00:34:04.593Z,5.50
2019-01-24T00:34:35.811Z,5.48
2019-01-24T00:35:07.003Z,5.56
2019-01-24T00:35:38.198Z,5.61
2019-01-24T00:36:09.375Z,5.59
2019-01-24T00:36:40.542Z,5.61
2019-01-24T00:37:11.735Z,5.62
2019-01-24T00:37:42.906Z,5.62
2019-01-24T00:38:14.093Z,5.60
2019-01-24T00:38:45.311Z,5.58
2019-01-24T00:39:17.323Z,5.57
2019-01-24T00:39:48.499Z,5.53
2019-01-24T00:40:19.671Z,5.53
2019-01-24T00:40:50.850Z,5.55
2019-01-24T00:41:22.053Z,5.57
2019-01-24T00:41:53.223Z,5.59
2019-01-24T00:42:24.430Z,5.59
2019-01-24T00:42:55.632Z,5.57
2019-01-24T00:43:26.802Z,5.58
2019-01-24T00:43:58.018Z,5.60
2019-01-24T00:44:29.230Z,5.62
2019-01-24T00:45:00.435Z,5.59
2019-01-24T00:45:31.629Z,5.56
2019-01-24T00:46:02.846Z,5.55
2019-01-24T00:46:34.043Z,5.54
2019-01-24T00:47:05.217Z,5.53
2019-01-24T00:47:36.422Z,5.53
2019-01-24T00:48:07.609Z,5.53
2019-01-24T00:48:38.847Z,5.53
2019-01-24T00:49:10.105Z,5.53
2019-01-24T00:49:41.283Z,5.52
2019-01-24T00:50:12.483Z,5.48
2019-01-24T00:50:43.668Z,5.50
2019-01-24T00:51:14.854Z,5.52
2019-01-24T00:51:46.033Z,5.55
2019-01-24T00:52:17.201Z,5.54
2019-01-24T00:52:48.391Z,5.52
2019-01-24T00:53:19.565Z,5.50
2019-01-24T00:53:50.735Z,5.47
2019-01-24T00:54:21.967Z,5.43
2019-01-24T00:54:53.139Z,5.40
2019-01-24T00:55:24.421Z,5.39
2019-01-24T00:55:55.600Z,5.37
2019-01-24T00:56:26.784Z,5.32
2019-01-24T00:56:58.009Z,5.30
2019-01-24T00:57:29.194Z,5.29
2019-01-24T00:58:00.385Z,5.32
2019-01-24T00:58:31.606Z,5.39
2019-01-24T00:59:02.779Z,5.45
2019-01-24T00:59:33.952Z,5.52
2019-01-24T01:00:05.127Z,5.54
2019-01-24T01:00:36.359Z,5.57
2019-01-24T01:01:07.550Z,5.62
2019-01-24T01:01:38.751Z,5.63
2019-01-24T01:02:09.958Z,5.64
2019-01-24T01:02:41.127Z,5.64
2019-01-24T01:03:12.323Z,5.67
2019-01-24T01:03:43.498Z,5.68
2019-01-24T01:04:14.711Z,5.69
2019-01-24T01:04:45.891Z,5.70
2019-01-24T01:05:17.053Z,5.71
2019-01-24T01:05:48.294Z,5.68
2019-01-24T01:06:19.473Z,5.60
2019-01-24T01:06:50.643Z,5.53
2019-01-24T01:07:21.804Z,5.39
2019-01-24T01:07:52.978Z,5.31
2019-01-24T01:08:24.148Z,5.23
2019-01-24T01:08:55.328Z,5.19
2019-01-24T01:09:26.547Z,5.13
2019-01-24T01:09:57.690Z,5.13
2019-01-24T01:10:28.859Z,5.14
2019-01-24T01:11:00.118Z,5.18
2019-01-24T01:11:31.299Z,5.17
2019-01-24T01:12:02.531Z,5.21
2019-01-24T01:12:33.720Z,5.24
2019-01-24T01:13:04.898Z,5.26
2019-01-24T01:13:36.089Z,5.25
2019-01-24T01:14:07.269Z,5.24
2019-01-24T01:14:38.510Z,5.25
2019-01-24T01:15:09.735Z,5.25
2019-01-24T01:15:40.929Z,5.27
2019-01-24T01:16:12.090Z,5.32
2019-01-24T01:16:43.268Z,5.34
2019-01-24T01:17:14.422Z,5.36
2019-01-24T01:17:45.600Z,5.40
2019-01-24T01:18:16.780Z,5.43
2019-01-24T01:18:47.953Z,5.41
2019-01-24T01:19:19.117Z,5.44
2019-01-24T01:19:50.289Z,5.44
2019-01-24T01:20:21.573Z,5.44
2019-01-24T01:20:52.763Z,5.43
2019-01-24T01:21:23.952Z,5.42
2019-01-24T01:21:55.118Z,5.42
2019-01-24T01:22:26.296Z,5.43
2019-01-24T01:22:57.489Z,5.43
2019-01-24T01:23:28.674Z,5.41
2019-01-24T01:23:59.885Z,5.41
2019-01-24T01:24:31.063Z,5.39
2019-01-24T01:25:02.236Z,5.41
2019-01-24T01:25:33.461Z,5.44
2019-01-24T01:26:04.660Z,5.47
2019-01-24T01:26:35.884Z,5.47
2019-01-24T01:27:07.051Z,5.48
2019-01-24T01:27:38.236Z,5.50
2019-01-24T01:28:09.422Z,5.50
2019-01-24T01:28:40.629Z,5.50
2019-01-24T01:29:11.816Z,5.55
2019-01-24T01:29:43.030Z,5.55
2019-01-24T01:30:14.196Z,5.57
2019-01-24T01:30:45.437Z,5.62
2019-01-24T01:31:16.622Z,5.67
2019-01-24T01:31:47.820Z,5.48
2019-01-24T01:32:19.039Z,5.73
2019-01-24T01:32:50.253Z,5.77
2019-01-24T01:33:21.443Z,5.79
2019-01-24T01:33:52.596Z,5.81
2019-01-24T01:34:23.804Z,5.81
2019-01-24T01:34:54.977Z,5.83
2019-01-24T01:35:26.157Z,5.82
2019-01-24T01:35:57.383Z,5.81
2019-01-24T01:36:28.549Z,5.79
2019-01-24T01:36:59.745Z,5.78
2019-01-24T01:37:33.158Z,5.79
2019-01-24T01:38:04.329Z,5.81
2019-01-24T01:38:35.502Z,5.76
2019-01-24T01:39:06.708Z,5.73
2019-01-24T01:39:37.881Z,5.70
2019-01-24T01:40:09.165Z,5.68
2019-01-24T01:40:40.334Z,5.65
2019-01-24T01:41:11.529Z,5.67
2019-01-24T01:41:42.760Z,5.67
2019-01-24T01:42:13.956Z,5.67
2019-01-24T01:42:45.158Z,5.67
2019-01-24T01:43:16.331Z,5.65
2019-01-24T01:43:47.583Z,5.63
2019-01-24T01:44:18.799Z,5.60
2019-01-24T01:44:49.988Z,5.62
2019-01-24T01:45:21.180Z,5.63
2019-01-24T01:45:52.439Z,5.65
2019-01-24T01:46:23.603Z,5.69
2019-01-24T01:46:54.827Z,5.70
2019-01-24T01:47:26.013Z,5.72
2019-01-24T01:47:57.208Z,5.75
2019-01-24T01:48:28.930Z,5.75
2019-01-24T01:49:00.110Z,5.78
2019-01-24T01:49:31.272Z,5.78
2019-01-24T01:50:02.461Z,5.79
2019-01-24T01:50:33.631Z,5.79
2019-01-24T01:51:04.885Z,5.80
2019-01-24T01:51:36.092Z,5.82
2019-01-24T01:52:07.285Z,5.80
2019-01-24T01:52:38.461Z,5.80
2019-01-24T01:53:09.689Z,5.79
2019-01-24T01:53:40.864Z,5.80
2019-01-24T01:54:12.097Z,5.80
2019-01-24T01:54:43.261Z,5.76
2019-01-24T01:55:14.451Z,5.72
2019-01-24T01:55:46.741Z,5.68
2019-01-24T01:56:17.924Z,5.66
2019-01-24T01:56:49.110Z,5.64
2019-01-24T01:57:20.314Z,5.63
2019-01-24T01:57:51.535Z,5.63
2019-01-24T01:58:22.744Z,5.63
2019-01-24T01:58:53.929Z,5.62
2019-01-24T01:59:25.148Z,5.62
2019-01-24T01:59:57.397Z,5.63
2019-01-24T02:00:28.584Z,5.63
2019-01-24T02:00:59.779Z,5.65
2019-01-24T02:01:30.985Z,5.66
2019-01-24T02:02:02.232Z,5.67
2019-01-24T02:02:33.407Z,5.71
2019-01-24T02:03:04.647Z,5.71
2019-01-24T02:03:35.819Z,5.73
2019-01-24T02:04:07.015Z,5.73
2019-01-24T02:04:42.893Z,5.72
2019-01-24T02:05:11.147Z,5.74
2019-01-24T02:05:42.326Z,5.75
2019-01-24T02:06:13.496Z,5.75
2019-01-24T02:06:44.715Z,5.76
2019-01-24T02:07:15.919Z,5.80
2019-01-24T02:07:47.087Z,5.81
2019-01-24T02:08:18.338Z,5.84
2019-01-24T02:08:49.524Z,5.86
2019-01-24T02:09:20.672Z,5.84
2019-01-24T02:09:51.905Z,5.84
2019-01-24T02:10:23.091Z,5.86
2019-01-24T02:10:54.286Z,5.86
2019-01-24T02:11:25.476Z,5.86
2019-01-24T02:11:56.676Z,5.84
2019-01-24T02:12:27.863Z,5.82
2019-01-24T02:12:59.096Z,5.78
2019-01-24T02:13:30.294Z,5.76
2019-01-24T02:14:01.543Z,5.75
2019-01-24T02:14:32.707Z,5.75
2019-01-24T02:15:03.876Z,5.76
2019-01-24T02:15:35.054Z,5.75
2019-01-24T02:16:06.245Z,5.78
2019-01-24T02:16:37.411Z,5.78
2019-01-24T02:17:08.584Z,5.77
2019-01-24T02:17:39.753Z,5.81
2019-01-24T02:18:10.960Z,5.79
2019-01-24T02:18:42.148Z,5.78
2019-01-24T02:19:13.411Z,5.78
2019-01-24T02:19:44.620Z,5.78
2019-01-24T02:20:15.805Z,5.82
2019-01-24T02:20:47.043Z,5.81
2019-01-24T02:21:18.210Z,5.82
2019-01-24T02:21:49.379Z,5.84
2019-01-24T02:22:20.549Z,5.85
2019-01-24T02:22:51.741Z,5.86
2019-01-24T02:23:22.926Z,5.84
2019-01-24T02:23:54.113Z,5.82
2019-01-24T02:24:25.316Z,5.81
2019-01-24T02:24:56.533Z,5.82
2019-01-24T02:25:27.724Z,5.79
2019-01-24T02:25:58.939Z,5.80
2019-01-24T02:26:30.196Z,5.79
2019-01-24T02:27:01.410Z,5.76
2019-01-24T02:27:32.638Z,5.77
2019-01-24T02:28:03.810Z,5.78
2019-01-24T02:28:34.984Z,5.78
2019-01-24T02:29:08.470Z,5.79
2019-01-24T02:29:39.640Z,5.74
2019-01-24T02:30:10.804Z,5.72
2019-01-24T02:30:42.052Z,5.72
2019-01-24T02:31:14.371Z,5.71
2019-01-24T02:31:45.553Z,5.71
2019-01-24T02:32:16.735Z,5.69
2019-01-24T02:32:47.913Z,5.67
2019-01-24T02:33:19.099Z,5.64
2019-01-24T02:33:50.274Z,5.64
2019-01-24T02:34:21.440Z,5.64
2019-01-24T02:34:52.628Z,5.63
2019-01-24T02:35:23.809Z,5.65
2019-01-24T02:35:54.997Z,5.67
2019-01-24T02:36:26.183Z,5.68
2019-01-24T02:36:57.374Z,5.68
2019-01-24T02:37:28.534Z,5.68
2019-01-24T02:37:59.774Z,5.69
2019-01-24T02:38:30.970Z,5.70
2019-01-24T02:39:02.138Z,5.70
2019-01-24T02:39:33.393Z,5.72
2019-01-24T02:40:04.558Z,5.75
2019-01-24T02:40:35.743Z,5.72
2019-01-24T02:41:06.903Z,5.75
2019-01-24T02:41:38.104Z,5.76
2019-01-24T02:42:09.352Z,5.76
2019-01-24T02:42:40.581Z,5.75
2019-01-24T02:43:11.755Z,5.75
2019-01-24T02:43:42.937Z,5.74
2019-01-24T02:44:14.109Z,5.75
2019-01-24T02:44:45.292Z,5.74
2019-01-24T02:45:16.477Z,5.72
2019-01-24T02:45:47.639Z,5.73
2019-01-24T02:46:18.871Z,5.74
2019-01-24T02:46:50.065Z,5.78
2019-01-24T02:47:21.247Z,5.80
2019-01-24T02:47:52.463Z,5.81
2019-01-24T02:48:23.671Z,5.82
2019-01-24T02:48:54.851Z,5.85
2019-01-24T02:49:26.085Z,5.86
2019-01-24T02:49:57.284Z,4.52
2019-01-24T02:50:28.265Z,5.89
2019-01-24T02:50:59.431Z,5.88
2019-01-24T02:51:30.612Z,5.91
2019-01-24T02:52:01.791Z,5.90
2019-01-24T02:52:33.030Z,5.89
2019-01-24T02:53:04.258Z,5.89
2019-01-24T02:53:35.445Z,5.87
2019-01-24T02:54:06.636Z,5.86
2019-01-24T02:54:38.174Z,5.86
2019-01-24T02:55:09.402Z,5.88
2019-01-24T02:55:40.582Z,5.89
2019-01-24T02:56:11.763Z,5.89
2019-01-24T02:56:42.969Z,5.90
2019-01-24T02:57:14.158Z,5.92
2019-01-24T02:57:45.328Z,5.95
2019-01-24T02:58:16.576Z,5.96
2019-01-24T02:58:47.744Z,5.96
2019-01-24T02:59:18.934Z,5.97
2019-01-24T02:59:50.132Z,5.96
2019-01-24T03:00:21.333Z,5.97
2019-01-24T03:00:52.498Z,5.97
2019-01-24T03:01:23.666Z,5.99
2019-01-24T03:01:54.836Z,5.98
2019-01-24T03:02:26.032Z,5.99
2019-01-24T03:02:57.213Z,5.98
2019-01-24T03:03:28.445Z,6.01
2019-01-24T03:03:59.608Z,6.02
2019-01-24T03:04:30.854Z,6.00
2019-01-24T03:05:02.019Z,6.03
2019-01-24T03:05:33.195Z,6.04
2019-01-24T03:06:04.403Z,6.02
2019-01-24T03:06:35.582Z,6.03
2019-01-24T03:07:06.777Z,6.03
2019-01-24T03:07:37.978Z,6.03
2019-01-24T03:08:09.171Z,6.04
2019-01-24T03:08:40.463Z,6.01
2019-01-24T03:09:11.699Z,6.01
2019-01-24T03:09:42.895Z,5.98
2019-01-24T03:10:14.065Z,6.01
2019-01-24T03:10:45.282Z,6.02
2019-01-24T03:11:16.445Z,6.02
2019-01-24T03:11:47.615Z,6.05
2019-01-24T03:12:18.786Z,6.05
2019-01-24T03:12:49.986Z,6.03
2019-01-24T03:13:21.179Z,6.07
2019-01-24T03:13:52.377Z,6.08
2019-01-24T03:14:23.557Z,6.13
2019-01-24T03:14:54.722Z,6.17
2019-01-24T03:15:25.878Z,6.21
2019-01-24T03:15:57.067Z,6.23
2019-01-24T03:16:28.276Z,6.26
2019-01-24T03:16:59.459Z,6.29
2019-01-24T03:17:30.665Z,6.33
2019-01-24T03:18:01.883Z,6.35
2019-01-24T03:18:33.091Z,6.36
2019-01-24T03:19:04.284Z,6.38
2019-01-24T03:19:35.471Z,6.40
2019-01-24T03:20:06.662Z,6.38
2019-01-24T03:20:37.868Z,6.38
2019-01-24T03:21:09.059Z,6.37
2019-01-24T03:21:40.239Z,6.37
2019-01-24T03:22:11.423Z,6.38
2019-01-24T03:22:42.589Z,6.38
2019-01-24T03:23:13.777Z,6.35
2019-01-24T03:23:45.014Z,5.83
2019-01-24T03:24:16.202Z,6.33
2019-01-24T03:24:47.380Z,6.32
2019-01-24T03:25:18.601Z,6.33
2019-01-24T03:25:49.803Z,6.35
2019-01-24T03:26:21.057Z,6.33
2019-01-24T03:26:52.328Z,6.34
2019-01-24T03:27:23.470Z,6.36
2019-01-24T03:27:54.750Z,6.37
2019-01-24T03:28:25.927Z,6.39
2019-01-24T03:28:57.148Z,6.39
2019-01-24T03:29:28.335Z,6.40
2019-01-24T03:29:59.507Z,6.41
2019-01-24T03:30:30.682Z,6.43
2019-01-24T03:31:01.900Z,6.43
2019-01-24T03:31:33.105Z,6.42
2019-01-24T03:32:04.276Z,6.43
2019-01-24T03:32:35.465Z,6.44
2019-01-24T03:33:06.693Z,6.45
2019-01-24T03:33:37.881Z,6.47
2019-01-24T03:34:09.126Z,6.49
2019-01-24T03:34:40.303Z,6.52
2019-01-24T03:35:11.516Z,6.52
2019-01-24T03:35:42.705Z,6.56
2019-01-24T03:36:13.900Z,6.57
2019-01-24T03:36:45.076Z,6.56
2019-01-24T03:37:16.251Z,6.55
2019-01-24T03:37:47.481Z,6.53
2019-01-24T03:38:18.659Z,6.54
2019-01-24T03:38:49.842Z,6.52
2019-01-24T03:39:21.039Z,6.56
2019-01-24T03:39:52.205Z,6.59
2019-01-24T03:40:23.375Z,6.58
2019-01-24T03:40:54.575Z,6.63
2019-01-24T03:41:25.751Z,6.66
2019-01-24T03:41:56.944Z,6.68
2019-01-24T03:42:28.132Z,6.69
2019-01-24T03:42:59.301Z,6.71
2019-01-24T03:43:30.475Z,6.73
2019-01-24T03:44:01.648Z,6.75
2019-01-24T03:44:32.842Z,6.77
2019-01-24T03:45:04.021Z,6.80
2019-01-24T03:45:35.207Z,6.82
2019-01-24T03:46:06.423Z,6.82
2019-01-24T03:46:37.599Z,6.82
2019-01-24T03:47:08.773Z,6.79
2019-01-24T03:47:39.958Z,6.85
2019-01-24T03:48:11.215Z,6.86
2019-01-24T03:48:42.399Z,6.85
2019-01-24T03:49:14.436Z,6.85
2019-01-24T03:49:45.619Z,6.85
2019-01-24T03:50:16.810Z,6.85
2019-01-24T03:50:47.994Z,6.87
2019-01-24T03:51:19.164Z,6.89
2019-01-24T03:51:50.359Z,6.91
2019-01-24T03:52:21.554Z,6.89
2019-01-24T03:52:52.746Z,6.94
2019-01-24T03:53:23.907Z,6.93
2019-01-24T03:53:55.138Z,6.94
2019-01-24T03:54:26.319Z,6.96
2019-01-24T03:54:57.485Z,6.97
2019-01-24T03:55:28.657Z,6.97
2019-01-24T03:55:59.822Z,6.97
2019-01-24T03:56:30.998Z,6.96
2019-01-24T03:57:02.168Z,6.94
2019-01-24T03:57:33.410Z,6.93
2019-01-24T03:58:04.574Z,6.88
2019-01-24T03:58:35.749Z,6.86
2019-01-24T03:59:06.957Z,6.87
2019-01-24T03:59:38.180Z,6.90
2019-01-24T04:00:09.366Z,6.87
2019-01-24T04:00:40.528Z,6.87
2019-01-24T04:01:11.740Z,6.88
2019-01-24T04:01:42.854Z,6.90
2019-01-24T04:02:14.068Z,6.87
2019-01-24T04:02:45.302Z,6.87
2019-01-24T04:03:16.521Z,6.85
2019-01-24T04:03:47.701Z,6.90
2019-01-24T04:04:18.883Z,6.92
2019-01-24T04:04:50.102Z,6.91
2019-01-24T04:05:21.290Z,6.91
2019-01-24T04:05:52.442Z,6.94
2019-01-24T04:06:23.621Z,6.96
2019-01-24T04:06:54.793Z,6.92
2019-01-24T04:07:25.964Z,6.93
2019-01-24T04:07:57.246Z,6.93
2019-01-24T04:08:28.437Z,6.96
2019-01-24T04:08:59.600Z,6.98
2019-01-24T04:09:30.757Z,7.00
2019-01-24T04:10:01.926Z,6.99
2019-01-24T04:10:33.102Z,6.99
2019-01-24T04:11:04.280Z,7.00
2019-01-24T04:11:35.460Z,7.01
2019-01-24T04:12:08.365Z,7.06
2019-01-24T04:12:40.375Z,7.09
2019-01-24T04:13:11.554Z,7.09
2019-01-24T04:13:42.720Z,7.10
2019-01-24T04:14:13.900Z,7.13
2019-01-24T04:14:45.084Z,7.13
2019-01-24T04:15:16.304Z,7.14
2019-01-24T04:15:47.540Z,7.15
2019-01-24T04:16:18.744Z,7.17
2019-01-24T04:16:49.988Z,7.17
2019-01-24T04:17:21.144Z,7.23
2019-01-24T04:17:52.364Z,7.28
2019-01-24T04:18:23.525Z,7.34
2019-01-24T04:18:54.709Z,7.42
2019-01-24T04:19:25.888Z,7.42
2019-01-24T04:19:57.079Z,7.41
2019-01-24T04:20:28.278Z,7.40
2019-01-24T04:20:59.501Z,7.44
2019-01-24T04:21:30.740Z,7.45
2019-01-24T04:22:01.911Z,7.47
2019-01-24T04:22:33.082Z,7.46
2019-01-24T04:23:04.297Z,7.48
2019-01-24T04:23:35.531Z,7.54
2019-01-24T04:24:06.674Z,7.52
2019-01-24T04:24:37.851Z,7.54
2019-01-24T04:25:08.941Z,7.55
2019-01-24T04:25:40.104Z,7.55
2019-01-24T04:26:11.261Z,7.58
2019-01-24T04:26:42.439Z,7.59
2019-01-24T04:27:13.655Z,7.60
2019-01-24T04:27:44.859Z,7.62
2019-01-24T04:28:16.032Z,7.62
2019-01-24T04:28:47.217Z,7.62
2019-01-24T04:29:18.401Z,7.63
2019-01-24T04:29:49.577Z,7.65
2019-01-24T04:30:20.742Z,7.66
2019-01-24T04:30:51.929Z,7.70
2019-01-24T04:31:23.083Z,7.70
2019-01-24T04:31:54.255Z,7.71
2019-01-24T04:32:25.462Z,7.73
2019-01-24T04:32:56.629Z,7.74
2019-01-24T04:33:27.792Z,7.77
2019-01-24T04:33:58.993Z,7.78
2019-01-24T04:34:30.163Z,7.80
2019-01-24T04:35:01.335Z,7.81
2019-01-24T04:35:32.508Z,7.81
2019-01-24T04:36:03.684Z,7.82
2019-01-24T04:36:34.878Z,7.80
2019-01-24T04:37:06.032Z,7.81
2019-01-24T04:37:37.225Z,7.78
2019-01-24T04:38:08.418Z,7.80
2019-01-24T04:38:39.584Z,7.81
2019-01-24T04:39:10.798Z,7.83
2019-01-24T04:39:41.988Z,7.84
2019-01-24T04:40:13.162Z,7.83
2019-01-24T04:40:44.342Z,7.40
2019-01-24T04:41:15.565Z,7.91
2019-01-24T04:41:46.746Z,7.89
2019-01-24T04:42:17.914Z,7.92
2019-01-24T04:42:49.118Z,7.93
2019-01-24T04:43:20.367Z,7.95
2019-01-24T04:43:51.534Z,7.99
2019-01-24T04:44:22.694Z,8.03
2019-01-24T04:44:53.868Z,8.04
2019-01-24T04:45:25.054Z,8.08
2019-01-24T04:45:56.216Z,8.12
2019-01-24T04:46:27.420Z,8.14
2019-01-24T04:46:58.620Z,8.14
2019-01-24T04:47:29.812Z,8.14
2019-01-24T04:48:00.975Z,8.12
2019-01-24T04:48:32.202Z,8.11
2019-01-24T04:49:03.416Z,8.10
2019-01-24T04:49:34.625Z,8.13
2019-01-24T04:50:05.800Z,8.12
2019-01-24T04:50:36.970Z,8.11
2019-01-24T04:51:08.141Z,8.14
2019-01-24T04:51:39.346Z,8.09
2019-01-24T04:52:10.547Z,8.14
2019-01-24T04:52:41.749Z,8.15
2019-01-24T04:53:12.982Z,8.17
2019-01-24T04:53:44.201Z,8.19
2019-01-24T04:54:15.408Z,8.20
2019-01-24T04:54:46.611Z,8.20
2019-01-24T04:55:17.782Z,8.24
2019-01-24T04:55:48.963Z,8.25
2019-01-24T04:56:20.174Z,8.23
2019-01-24T04:56:51.392Z,8.25
2019-01-24T04:57:22.581Z,8.26
2019-01-24T04:57:54.988Z,8.27
2019-01-24T04:58:26.477Z,8.27
2019-01-24T04:58:57.645Z,8.28
2019-01-24T04:59:28.875Z,8.34
2019-01-24T05:00:00.050Z,8.30
2019-01-24T05:00:31.320Z,8.30
2019-01-24T05:01:02.518Z,8.34
2019-01-24T05:01:33.702Z,8.32
2019-01-24T05:02:04.902Z,8.38
2019-01-24T05:02:36.064Z,8.38
2019-01-24T05:03:07.227Z,8.37
2019-01-24T05:03:38.403Z,8.35
2019-01-24T05:04:09.578Z,8.34
2019-01-24T05:04:40.776Z,8.35
2019-01-24T05:05:11.952Z,8.35
2019-01-24T05:05:43.171Z,8.34
2019-01-24T05:06:14.374Z,8.38
2019-01-24T05:06:45.565Z,8.39
2019-01-24T05:07:16.754Z,8.38
2019-01-24T05:07:47.936Z,8.38
2019-01-24T05:08:19.143Z,8.46
2019-01-24T05:08:50.350Z,8.49
2019-01-24T05:09:21.526Z,8.50
2019-01-24T05:09:52.700Z,8.51
2019-01-24T05:10:23.895Z,8.50
2019-01-24T05:10:55.123Z,8.50
2019-01-24T05:11:26.293Z,8.48
2019-01-24T05:11:57.468Z,8.47
2019-01-24T05:12:28.629Z,8.45
2019-01-24T05:12:59.792Z,8.45
2019-01-24T05:13:30.958Z,8.39
2019-01-24T05:14:02.135Z,8.36
2019-01-24T05:14:33.298Z,8.36
2019-01-24T05:15:04.460Z,8.35
2019-01-24T05:15:35.648Z,8.34
2019-01-24T05:16:06.888Z,8.33
2019-01-24T05:16:38.049Z,8.30
2019-01-24T05:17:09.252Z,8.29
2019-01-24T05:17:40.476Z,8.25
2019-01-24T05:18:11.677Z,8.25
2019-01-24T05:18:42.865Z,8.24
2019-01-24T05:19:14.033Z,8.25
2019-01-24T05:19:45.212Z,8.22
2019-01-24T05:20:16.417Z,8.23
2019-01-24T05:20:47.566Z,8.23
2019-01-24T05:21:18.816Z,8.20
2019-01-24T05:21:50.007Z,8.21
2019-01-24T05:22:21.221Z,8.20
2019-01-24T05:22:52.423Z,8.14
2019-01-24T05:23:23.655Z,8.14
2019-01-24T05:23:54.836Z,8.15
2019-01-24T05:24:25.998Z,7.77
2019-01-24T05:24:57.178Z,8.14
2019-01-24T05:25:28.390Z,8.09
2019-01-24T05:25:59.608Z,8.08
2019-01-24T05:26:30.785Z,8.08
2019-01-24T05:27:01.965Z,8.08
2019-01-24T05:27:33.177Z,8.10
2019-01-24T05:28:04.362Z,8.10
2019-01-24T05:28:35.528Z,8.10
2019-01-24T05:29:06.720Z,8.07
2019-01-24T05:29:37.900Z,8.06
2019-01-24T05:30:09.062Z,8.04
2019-01-24T05:30:40.233Z,7.98
2019-01-24T05:31:11.461Z,7.99
2019-01-24T05:31:42.973Z,7.99
2019-01-24T05:32:14.176Z,7.99
2019-01-24T05:32:45.430Z,7.99
2019-01-24T05:33:16.611Z,8.03
2019-01-24T05:33:47.794Z,8.07
2019-01-24T05:34:18.974Z,8.09
2019-01-24T05:34:50.132Z,8.09
2019-01-24T05:35:21.330Z,8.07
2019-01-24T05:35:52.572Z,8.10
2019-01-24T05:36:23.752Z,8.09
2019-01-24T05:36:54.936Z,8.08
2019-01-24T05:37:26.149Z,8.06
2019-01-24T05:37:57.313Z,8.04
2019-01-24T05:38:28.495Z,8.07
2019-01-24T05:38:59.659Z,8.05
2019-01-24T05:39:30.831Z,8.08
2019-01-24T05:40:02.005Z,8.06
2019-01-24T05:40:33.202Z,8.06
2019-01-24T05:41:04.370Z,8.05
2019-01-24T05:41:35.555Z,8.07
2019-01-24T05:42:06.732Z,8.04
2019-01-24T05:42:37.957Z,8.02
2019-01-24T05:43:09.123Z,8.00
2019-01-24T05:43:40.302Z,8.02
2019-01-24T05:44:11.507Z,8.00
2019-01-24T05:44:42.705Z,8.01
2019-01-24T05:45:13.878Z,7.96
2019-01-24T05:45:45.456Z,7.93
2019-01-24T05:46:16.620Z,7.94
2019-01-24T05:46:47.812Z,7.90
2019-01-24T05:47:19.042Z,7.90
2019-01-24T05:47:50.209Z,7.87
2019-01-24T05:48:21.395Z,7.86
2019-01-24T05:48:52.602Z,7.83
2019-01-24T05:49:23.756Z,7.83
2019-01-24T05:49:54.909Z,7.81
2019-01-24T05:50:26.129Z,7.83
2019-01-24T05:50:57.308Z,7.86
2019-01-24T05:51:28.477Z,7.88
2019-01-24T05:51:59.672Z,7.86
2019-01-24T05:52:30.841Z,7.88
2019-01-24T05:53:02.015Z,7.87
2019-01-24T05:53:33.178Z,7.89
2019-01-24T05:54:04.347Z,7.90
2019-01-24T05:54:35.526Z,7.90
2019-01-24T05:55:06.710Z,7.90
2019-01-24T05:55:37.925Z,7.89
2019-01-24T05:56:09.101Z,7.87
2019-01-24T05:56:40.292Z,7.91
2019-01-24T05:57:11.466Z,7.94
2019-01-24T05:57:42.636Z,7.87
2019-01-24T05:58:13.848Z,7.90
2019-01-24T05:58:45.072Z,7.93
2019-01-24T05:59:16.270Z,7.96
2019-01-24T05:59:47.438Z,7.96
2019-01-24T06:00:18.648Z,7.99
2019-01-24T06:00:49.838Z,8.03
2019-01-24T06:01:21.024Z,8.08
2019-01-24T06:01:52.233Z,8.10
2019-01-24T06:02:23.415Z,8.14
2019-01-24T06:02:54.633Z,8.13
2019-01-24T06:03:25.797Z,8.14
2019-01-24T06:03:56.978Z,8.11
2019-01-24T06:04:28.158Z,8.09
2019-01-24T06:04:59.331Z,8.12
2019-01-24T06:05:30.510Z,8.12
2019-01-24T06:06:01.696Z,8.12
2019-01-24T06:06:32.862Z,7.39
2019-01-24T06:07:04.041Z,8.14
2019-01-24T06:07:35.207Z,8.15
2019-01-24T06:08:06.441Z,8.13
2019-01-24T06:08:37.625Z,8.13
2019-01-24T06:09:08.794Z,8.14
2019-01-24T06:09:40.014Z,8.15
2019-01-24T06:10:11.165Z,8.15
2019-01-24T06:10:42.325Z,8.15
2019-01-24T06:11:13.508Z,8.16
2019-01-24T06:11:44.693Z,8.17
2019-01-24T06:12:15.872Z,8.18
2019-01-24T06:12:47.080Z,8.14
2019-01-24T06:13:18.297Z,8.14
2019-01-24T06:13:49.487Z,8.16
2019-01-24T06:14:20.673Z,8.15
2019-01-24T06:14:51.842Z,8.16
2019-01-24T06:15:23.017Z,8.17
2019-01-24T06:15:54.195Z,8.15
2019-01-24T06:16:25.367Z,8.20
2019-01-24T06:16:56.557Z,8.23
2019-01-24T06:17:27.720Z,8.22
2019-01-24T06:17:58.886Z,8.21
2019-01-24T06:18:30.108Z,8.20
2019-01-24T06:19:01.272Z,8.19
2019-01-24T06:19:32.433Z,8.20
2019-01-24T06:20:03.617Z,8.22
2019-01-24T06:20:34.800Z,8.23
2019-01-24T06:21:05.966Z,8.23
2019-01-24T06:21:37.126Z,8.24
2019-01-24T06:22:08.303Z,8.25
2019-01-24T06:22:39.473Z,8.23
2019-01-24T06:23:11.234Z,8.21
2019-01-24T06:23:42.545Z,8.24
2019-01-24T06:24:14.767Z,8.21
2019-01-24T06:24:45.973Z,8.23
2019-01-24T06:25:17.141Z,8.26
2019-01-24T06:25:48.299Z,8.26
2019-01-24T06:26:19.517Z,8.25
2019-01-24T06:26:50.731Z,8.24
2019-01-24T06:27:21.892Z,8.26
2019-01-24T06:27:53.077Z,8.26
2019-01-24T06:28:24.258Z,8.26
2019-01-24T06:28:55.422Z,8.33
2019-01-24T06:29:26.655Z,8.38
2019-01-24T06:29:57.824Z,8.41
2019-01-24T06:30:29.019Z,8.43
2019-01-24T06:31:00.184Z,8.44
2019-01-24T06:31:31.352Z,8.43
2019-01-24T06:32:02.527Z,8.39
2019-01-24T06:32:33.711Z,8.40
2019-01-24T06:33:04.878Z,8.42
2019-01-24T06:33:36.038Z,8.43
2019-01-24T06:34:07.205Z,8.48
2019-01-24T06:34:38.434Z,8.50
2019-01-24T06:35:09.619Z,8.49
2019-01-24T06:35:40.785Z,8.47
2019-01-24T06:36:11.955Z,8.46
2019-01-24T06:36:43.115Z,8.47
2019-01-24T06:37:14.286Z,8.44
2019-01-24T06:37:45.448Z,8.46
2019-01-24T06:38:16.622Z,8.47
2019-01-24T06:38:47.793Z,8.49
2019-01-24T06:39:18.958Z,8.55
2019-01-24T06:39:50.170Z,8.60
2019-01-24T06:40:21.340Z,8.62
2019-01-24T06:40:52.524Z,8.65
2019-01-24T06:41:23.696Z,8.66
2019-01-24T06:41:54.877Z,8.65
2019-01-24T06:42:26.108Z,8.67
2019-01-24T06:42:57.268Z,8.71
2019-01-24T06:43:28.470Z,8.72
2019-01-24T06:44:00.326Z,8.76
2019-01-24T06:44:31.494Z,8.78
2019-01-24T06:45:02.677Z,8.78
2019-01-24T06:45:33.859Z,8.79
2019-01-24T06:46:05.026Z,8.82
2019-01-24T06:46:36.212Z,8.80
2019-01-24T06:47:07.426Z,8.82
2019-01-24T06:47:38.647Z,8.83
2019-01-24T06:48:09.805Z,8.84
2019-01-24T06:48:40.984Z,8.84
2019-01-24T06:49:12.157Z,8.88
2019-01-24T06:49:43.350Z,8.86
2019-01-24T06:50:14.534Z,8.82
2019-01-24T06:50:45.716Z,8.86
2019-01-24T06:51:16.933Z,8.92
2019-01-24T06:51:48.114Z,9.03
2019-01-24T06:52:19.286Z,9.06
2019-01-24T06:52:50.460Z,9.06
2019-01-24T06:53:21.730Z,9.12
2019-01-24T06:53:52.911Z,9.14
2019-01-24T06:54:24.093Z,9.19
2019-01-24T06:54:55.262Z,9.21
2019-01-24T06:55:26.448Z,9.18